sensor_id;sensor_type;location;lat;lon;timestamp;P1;durP1;ratioP1;P2;durP2;ratioP2
64714;SDS011;51144;53.002;6.506;2022-10-23T00:01:27;20.02;;;12.95;;
64714;SDS011;51144;53.002;6.506;2022-10-23T00:04:01;29.42;;;12.68;;
64714;SDS011;51144;53.002;6.506;2022-10-23T00:06:30;29.38;;;12.30;;
64714;SDS011;51144;53.002;6.506;2022-10-23T00:08:57;19.38;;;12.98;;
64714;SDS011;51144;53.002;6.506;2022-10-23T00:11:24;26.17;;;13.55;;
64714;SDS011;51144;53.002;6.506;2022-10-23T00:13:52;26.00;;;13.65;;
64714;SDS011;51144;53.002;6.506;2022-10-23T00:16:19;22.30;;;12.68;;
64714;SDS011;51144;53.002;6.506;2022-10-23T00:18:44;27.42;;;13.93;;
64714;SDS011;51144;53.002;6.506;2022-10-23T00:21:10;22.65;;;13.63;;
64714;SDS011;51144;53.002;6.506;2022-10-23T00:23:37;27.70;;;14.15;;
64714;SDS011;51144;53.002;6.506;2022-10-23T00:26:04;20.30;;;13.73;;
64714;SDS011;51144;53.002;6.506;2022-10-23T00:28:32;27.00;;;14.15;;
64714;SDS011;51144;53.002;6.506;2022-10-23T00:31:02;27.35;;;14.15;;
64714;SDS011;51144;53.002;6.506;2022-10-23T00:33:29;21.10;;;14.65;;
64714;SDS011;51144;53.002;6.506;2022-10-23T00:35:55;23.25;;;15.73;;
64714;SDS011;51144;53.002;6.506;2022-10-23T00:38:21;29.40;;;15.82;;
64714;SDS011;51144;53.002;6.506;2022-10-23T00:40:46;25.10;;;14.80;;
64714;SDS011;51144;53.002;6.506;2022-10-23T00:43:15;25.38;;;16.15;;
64714;SDS011;51144;53.002;6.506;2022-10-23T00:45:45;25.87;;;16.13;;
64714;SDS011;51144;53.002;6.506;2022-10-23T00:48:11;31.55;;;15.70;;
64714;SDS011;51144;53.002;6.506;2022-10-23T00:50:37;30.23;;;17.33;;
64714;SDS011;51144;53.002;6.506;2022-10-23T00:53:04;29.05;;;16.98;;
64714;SDS011;51144;53.002;6.506;2022-10-23T00:55:29;23.35;;;16.02;;
64714;SDS011;51144;53.002;6.506;2022-10-23T00:57:57;22.58;;;15.35;;
64714;SDS011;51144;53.002;6.506;2022-10-23T01:00:25;18.48;;;14.55;;
64714;SDS011;51144;53.002;6.506;2022-10-23T01:02:56;26.27;;;15.40;;
64714;SDS011;51144;53.002;6.506;2022-10-23T01:05:24;21.08;;;16.48;;
64714;SDS011;51144;53.002;6.506;2022-10-23T01:08:05;23.05;;;15.88;;
64714;SDS011;51144;53.002;6.506;2022-10-23T01:10:51;30.23;;;16.50;;
64714;SDS011;51144;53.002;6.506;2022-10-23T01:13:24;34.95;;;16.90;;
64714;SDS011;51144;53.002;6.506;2022-10-23T01:16:04;28.05;;;15.68;;
64714;SDS011;51144;53.002;6.506;2022-10-23T01:18:43;28.05;;;18.15;;
64714;SDS011;51144;53.002;6.506;2022-10-23T01:21:28;25.83;;;15.90;;
64714;SDS011;51144;53.002;6.506;2022-10-23T01:30:10;21.27;;;15.23;;
64714;SDS011;51144;53.002;6.506;2022-10-23T01:37:42;25.33;;;14.80;;
64714;SDS011;51144;53.002;6.506;2022-10-23T01:40:14;20.92;;;15.75;;
64714;SDS011;51144;53.002;6.506;2022-10-23T01:42:50;22.88;;;15.60;;
64714;SDS011;51144;53.002;6.506;2022-10-23T01:45:23;29.50;;;16.48;;
64714;SDS011;51144;53.002;6.506;2022-10-23T01:47:56;23.75;;;16.73;;
64714;SDS011;51144;53.002;6.506;2022-10-23T01:50:25;25.98;;;15.35;;
64714;SDS011;51144;53.002;6.506;2022-10-23T01:52:53;23.50;;;14.43;;
64714;SDS011;51144;53.002;6.506;2022-10-23T01:55:19;26.77;;;14.82;;
64714;SDS011;51144;53.002;6.506;2022-10-23T01:57:46;23.48;;;14.88;;
64714;SDS011;51144;53.002;6.506;2022-10-23T02:00:14;25.23;;;16.05;;
64714;SDS011;51144;53.002;6.506;2022-10-23T02:02:41;26.10;;;15.15;;
64714;SDS011;51144;53.002;6.506;2022-10-23T02:05:20;27.33;;;15.50;;
64714;SDS011;51144;53.002;6.506;2022-10-23T02:07:51;30.40;;;16.52;;
64714;SDS011;51144;53.002;6.506;2022-10-23T02:10:18;24.88;;;15.55;;
64714;SDS011;51144;53.002;6.506;2022-10-23T02:12:49;21.00;;;15.13;;
64714;SDS011;51144;53.002;6.506;2022-10-23T02:18:04;22.90;;;16.05;;
64714;SDS011;51144;53.002;6.506;2022-10-23T02:20:41;24.85;;;16.27;;
64714;SDS011;51144;53.002;6.506;2022-10-23T02:26:14;23.77;;;14.48;;
64714;SDS011;51144;53.002;6.506;2022-10-23T02:29:04;25.55;;;15.75;;
64714;SDS011;51144;53.002;6.506;2022-10-23T02:31:34;24.70;;;16.23;;
64714;SDS011;51144;53.002;6.506;2022-10-23T02:34:00;23.15;;;17.15;;
64714;SDS011;51144;53.002;6.506;2022-10-23T02:36:26;27.52;;;16.33;;
64714;SDS011;51144;53.002;6.506;2022-10-23T02:38:52;28.77;;;16.42;;
64714;SDS011;51144;53.002;6.506;2022-10-23T02:51:02;22.85;;;16.00;;
64714;SDS011;51144;53.002;6.506;2022-10-23T03:01:12;25.42;;;17.20;;
64714;SDS011;51144;53.002;6.506;2022-10-23T03:03:41;26.80;;;16.52;;
64714;SDS011;51144;53.002;6.506;2022-10-23T03:06:10;22.77;;;16.05;;
64714;SDS011;51144;53.002;6.506;2022-10-23T03:08:40;23.58;;;17.08;;
64714;SDS011;51144;53.002;6.506;2022-10-23T03:11:08;23.65;;;17.10;;
64714;SDS011;51144;53.002;6.506;2022-10-23T03:13:33;23.15;;;16.85;;
64714;SDS011;51144;53.002;6.506;2022-10-23T03:15:59;27.27;;;17.33;;
64714;SDS011;51144;53.002;6.506;2022-10-23T03:18:24;26.02;;;16.88;;
64714;SDS011;51144;53.002;6.506;2022-10-23T03:20:50;25.40;;;17.13;;
64714;SDS011;51144;53.002;6.506;2022-10-23T03:23:15;28.77;;;17.02;;
64714;SDS011;51144;53.002;6.506;2022-10-23T03:25:41;31.98;;;17.35;;
64714;SDS011;51144;53.002;6.506;2022-10-23T03:28:07;29.02;;;18.67;;
64714;SDS011;51144;53.002;6.506;2022-10-23T03:30:32;29.17;;;17.50;;
64714;SDS011;51144;53.002;6.506;2022-10-23T03:32:58;29.55;;;18.55;;
64714;SDS011;51144;53.002;6.506;2022-10-23T03:35:23;30.40;;;18.75;;
64714;SDS011;51144;53.002;6.506;2022-10-23T03:37:49;32.22;;;18.63;;
64714;SDS011;51144;53.002;6.506;2022-10-23T03:40:14;29.80;;;17.77;;
64714;SDS011;51144;53.002;6.506;2022-10-23T03:42:40;27.52;;;18.30;;
64714;SDS011;51144;53.002;6.506;2022-10-23T03:45:06;38.72;;;18.73;;
64714;SDS011;51144;53.002;6.506;2022-10-23T03:47:32;32.83;;;18.80;;
64714;SDS011;51144;53.002;6.506;2022-10-23T03:49:59;31.23;;;19.20;;
64714;SDS011;51144;53.002;6.506;2022-10-23T03:52:25;30.90;;;19.35;;
64714;SDS011;51144;53.002;6.506;2022-10-23T03:54:51;31.88;;;19.60;;
64714;SDS011;51144;53.002;6.506;2022-10-23T03:57:17;27.40;;;17.70;;
64714;SDS011;51144;53.002;6.506;2022-10-23T03:59:42;37.60;;;19.25;;
64714;SDS011;51144;53.002;6.506;2022-10-23T04:02:08;35.88;;;19.60;;
64714;SDS011;51144;53.002;6.506;2022-10-23T04:04:34;38.60;;;19.27;;
64714;SDS011;51144;53.002;6.506;2022-10-23T04:06:59;32.83;;;18.30;;
64714;SDS011;51144;53.002;6.506;2022-10-23T04:09:25;31.50;;;17.98;;
64714;SDS011;51144;53.002;6.506;2022-10-23T04:11:51;36.03;;;19.75;;
64714;SDS011;51144;53.002;6.506;2022-10-23T04:14:16;34.45;;;18.58;;
64714;SDS011;51144;53.002;6.506;2022-10-23T04:16:42;31.73;;;18.25;;
64714;SDS011;51144;53.002;6.506;2022-10-23T04:19:08;24.38;;;16.77;;
64714;SDS011;51144;53.002;6.506;2022-10-23T04:21:34;28.42;;;17.50;;
64714;SDS011;51144;53.002;6.506;2022-10-23T04:23:59;32.53;;;17.58;;
64714;SDS011;51144;53.002;6.506;2022-10-23T04:26:25;33.20;;;17.40;;
64714;SDS011;51144;53.002;6.506;2022-10-23T04:28:51;36.85;;;18.20;;
64714;SDS011;51144;53.002;6.506;2022-10-23T04:31:16;28.98;;;17.67;;
64714;SDS011;51144;53.002;6.506;2022-10-23T04:33:42;31.15;;;17.35;;
64714;SDS011;51144;53.002;6.506;2022-10-23T04:36:08;34.88;;;17.30;;
64714;SDS011;51144;53.002;6.506;2022-10-23T04:38:33;32.05;;;17.55;;
64714;SDS011;51144;53.002;6.506;2022-10-23T04:40:59;24.83;;;16.50;;
64714;SDS011;51144;53.002;6.506;2022-10-23T04:43:25;32.75;;;17.00;;
64714;SDS011;51144;53.002;6.506;2022-10-23T04:45:50;23.20;;;17.30;;
64714;SDS011;51144;53.002;6.506;2022-10-23T04:48:16;28.88;;;17.45;;
64714;SDS011;51144;53.002;6.506;2022-10-23T04:50:41;29.13;;;18.13;;
64714;SDS011;51144;53.002;6.506;2022-10-23T04:53:07;28.90;;;17.73;;
64714;SDS011;51144;53.002;6.506;2022-10-23T04:55:33;33.95;;;17.85;;
64714;SDS011;51144;53.002;6.506;2022-10-23T04:57:59;27.90;;;19.05;;
64714;SDS011;51144;53.002;6.506;2022-10-23T05:00:24;26.00;;;18.15;;
64714;SDS011;51144;53.002;6.506;2022-10-23T05:02:50;27.83;;;17.92;;
64714;SDS011;51144;53.002;6.506;2022-10-23T05:05:16;29.50;;;18.42;;
64714;SDS011;51144;53.002;6.506;2022-10-23T05:07:41;26.00;;;18.10;;
64714;SDS011;51144;53.002;6.506;2022-10-23T05:10:07;26.40;;;19.27;;
64714;SDS011;51144;53.002;6.506;2022-10-23T05:12:33;30.23;;;18.23;;
64714;SDS011;51144;53.002;6.506;2022-10-23T05:14:59;29.27;;;18.85;;
64714;SDS011;51144;53.002;6.506;2022-10-23T05:17:28;25.45;;;18.95;;
64714;SDS011;51144;53.002;6.506;2022-10-23T05:19:58;32.22;;;19.60;;
64714;SDS011;51144;53.002;6.506;2022-10-23T05:22:29;27.92;;;18.95;;
64714;SDS011;51144;53.002;6.506;2022-10-23T05:25:00;30.67;;;19.17;;
64714;SDS011;51144;53.002;6.506;2022-10-23T05:27:26;36.85;;;19.75;;
64714;SDS011;51144;53.002;6.506;2022-10-23T05:29:52;29.90;;;18.35;;
64714;SDS011;51144;53.002;6.506;2022-10-23T05:32:17;28.92;;;18.30;;
64714;SDS011;51144;53.002;6.506;2022-10-23T05:34:44;28.10;;;18.85;;
64714;SDS011;51144;53.002;6.506;2022-10-23T10:47:04;8.27;;;3.83;;
64714;SDS011;51144;53.002;6.506;2022-10-23T10:55:03;5.43;;;3.08;;
64714;SDS011;51144;53.002;6.506;2022-10-23T10:57:44;7.70;;;2.92;;
64714;SDS011;51144;53.002;6.506;2022-10-23T11:00:18;13.13;;;3.85;;
64714;SDS011;51144;53.002;6.506;2022-10-23T11:05:21;5.80;;;2.30;;
64714;SDS011;51144;53.002;6.506;2022-10-23T11:08:04;8.00;;;2.95;;
64714;SDS011;51144;53.002;6.506;2022-10-23T11:10:38;6.75;;;2.15;;
64714;SDS011;51144;53.002;6.506;2022-10-23T11:13:17;5.25;;;3.03;;
64714;SDS011;51144;53.002;6.506;2022-10-23T11:15:50;4.22;;;2.15;;
64714;SDS011;51144;53.002;6.506;2022-10-23T11:18:22;8.07;;;3.13;;
64714;SDS011;51144;53.002;6.506;2022-10-23T11:26:27;6.70;;;2.58;;
64714;SDS011;51144;53.002;6.506;2022-10-23T11:29:17;7.53;;;2.45;;
64714;SDS011;51144;53.002;6.506;2022-10-23T11:35:07;7.10;;;2.40;;
64714;SDS011;51144;53.002;6.506;2022-10-23T11:37:41;3.08;;;1.90;;
64714;SDS011;51144;53.002;6.506;2022-10-23T11:42:44;5.85;;;1.73;;
64714;SDS011;51144;53.002;6.506;2022-10-23T11:48:01;7.13;;;2.17;;
64714;SDS011;51144;53.002;6.506;2022-10-23T11:50:29;7.75;;;2.30;;
64714;SDS011;51144;53.002;6.506;2022-10-23T11:53:08;11.98;;;3.20;;
64714;SDS011;51144;53.002;6.506;2022-10-23T11:58:41;5.57;;;2.15;;
64714;SDS011;51144;53.002;6.506;2022-10-23T12:09:21;3.63;;;1.48;;
64714;SDS011;51144;53.002;6.506;2022-10-23T12:12:12;4.55;;;1.67;;
64714;SDS011;51144;53.002;6.506;2022-10-23T12:14:44;4.72;;;2.15;;
64714;SDS011;51144;53.002;6.506;2022-10-23T12:19:49;8.25;;;1.67;;
64714;SDS011;51144;53.002;6.506;2022-10-23T12:22:31;9.70;;;2.10;;
64714;SDS011;51144;53.002;6.506;2022-10-23T12:25:26;6.43;;;1.60;;
64714;SDS011;51144;53.002;6.506;2022-10-23T12:31:22;5.20;;;1.40;;
64714;SDS011;51144;53.002;6.506;2022-10-23T12:39:28;4.55;;;1.17;;
64714;SDS011;51144;53.002;6.506;2022-10-23T12:41:55;6.90;;;1.65;;
64714;SDS011;51144;53.002;6.506;2022-10-23T12:44:22;5.25;;;1.40;;
64714;SDS011;51144;53.002;6.506;2022-10-23T12:46:50;5.25;;;1.65;;
64714;SDS011;51144;53.002;6.506;2022-10-23T12:49:20;6.32;;;1.80;;
64714;SDS011;51144;53.002;6.506;2022-10-23T12:51:57;6.53;;;2.00;;
64714;SDS011;51144;53.002;6.506;2022-10-23T12:54:25;4.72;;;1.77;;
64714;SDS011;51144;53.002;6.506;2022-10-23T12:56:51;4.45;;;1.33;;
64714;SDS011;51144;53.002;6.506;2022-10-23T12:59:19;6.75;;;1.38;;
64714;SDS011;51144;53.002;6.506;2022-10-23T13:01:55;7.80;;;2.15;;
64714;SDS011;51144;53.002;6.506;2022-10-23T13:06:53;6.13;;;1.27;;
64714;SDS011;51144;53.002;6.506;2022-10-23T13:09:22;6.15;;;1.63;;
64714;SDS011;51144;53.002;6.506;2022-10-23T13:11:52;5.13;;;1.38;;
64714;SDS011;51144;53.002;6.506;2022-10-23T13:14:39;5.30;;;1.25;;
64714;SDS011;51144;53.002;6.506;2022-10-23T13:17:10;6.57;;;1.38;;
64714;SDS011;51144;53.002;6.506;2022-10-23T13:19:36;5.68;;;1.52;;
64714;SDS011;51144;53.002;6.506;2022-10-23T13:22:02;8.60;;;1.20;;
64714;SDS011;51144;53.002;6.506;2022-10-23T13:24:39;8.23;;;1.02;;
64714;SDS011;51144;53.002;6.506;2022-10-23T13:32:53;6.40;;;1.27;;
64714;SDS011;51144;53.002;6.506;2022-10-23T13:35:20;4.97;;;1.58;;
64714;SDS011;51144;53.002;6.506;2022-10-23T13:37:47;5.28;;;1.77;;
64714;SDS011;51144;53.002;6.506;2022-10-23T13:40:20;9.32;;;1.98;;
64714;SDS011;51144;53.002;6.506;2022-10-23T13:42:51;3.70;;;1.08;;
64714;SDS011;51144;53.002;6.506;2022-10-23T13:45:20;8.20;;;1.20;;
64714;SDS011;51144;53.002;6.506;2022-10-23T13:47:47;6.72;;;1.30;;
64714;SDS011;51144;53.002;6.506;2022-10-23T13:50:13;5.53;;;1.50;;
64714;SDS011;51144;53.002;6.506;2022-10-23T13:52:39;4.53;;;1.73;;
64714;SDS011;51144;53.002;6.506;2022-10-23T13:55:23;7.60;;;3.53;;
64714;SDS011;51144;53.002;6.506;2022-10-23T13:57:50;4.28;;;1.50;;
64714;SDS011;51144;53.002;6.506;2022-10-23T14:00:16;6.18;;;1.52;;
64714;SDS011;51144;53.002;6.506;2022-10-23T14:02:42;5.97;;;1.23;;
64714;SDS011;51144;53.002;6.506;2022-10-23T14:05:08;9.18;;;1.42;;
64714;SDS011;51144;53.002;6.506;2022-10-23T14:07:34;7.43;;;1.20;;
64714;SDS011;51144;53.002;6.506;2022-10-23T14:09:59;4.70;;;1.52;;
64714;SDS011;51144;53.002;6.506;2022-10-23T14:12:25;13.57;;;1.55;;
64714;SDS011;51144;53.002;6.506;2022-10-23T14:14:51;2.90;;;1.13;;
64714;SDS011;51144;53.002;6.506;2022-10-23T14:17:18;7.90;;;1.33;;
64714;SDS011;51144;53.002;6.506;2022-10-23T14:19:44;7.05;;;1.13;;
64714;SDS011;51144;53.002;6.506;2022-10-23T14:22:09;5.05;;;0.90;;
64714;SDS011;51144;53.002;6.506;2022-10-23T14:24:35;3.33;;;0.88;;
64714;SDS011;51144;53.002;6.506;2022-10-23T14:27:01;5.75;;;0.90;;
64714;SDS011;51144;53.002;6.506;2022-10-23T14:29:26;6.75;;;1.35;;
64714;SDS011;51144;53.002;6.506;2022-10-23T14:31:52;8.32;;;2.15;;
64714;SDS011;51144;53.002;6.506;2022-10-23T14:34:18;4.10;;;0.85;;
64714;SDS011;51144;53.002;6.506;2022-10-23T14:36:44;5.05;;;1.40;;
64714;SDS011;51144;53.002;6.506;2022-10-23T14:39:09;7.07;;;1.20;;
64714;SDS011;51144;53.002;6.506;2022-10-23T14:41:35;6.43;;;1.20;;
64714;SDS011;51144;53.002;6.506;2022-10-23T14:44:02;4.30;;;0.82;;
64714;SDS011;51144;53.002;6.506;2022-10-23T14:46:27;7.10;;;1.45;;
64714;SDS011;51144;53.002;6.506;2022-10-23T14:48:53;5.30;;;1.42;;
64714;SDS011;51144;53.002;6.506;2022-10-23T14:51:28;6.57;;;1.00;;
64714;SDS011;51144;53.002;6.506;2022-10-23T14:53:55;4.50;;;1.25;;
64714;SDS011;51144;53.002;6.506;2022-10-23T14:56:24;4.43;;;0.80;;
64714;SDS011;51144;53.002;6.506;2022-10-23T14:58:50;3.60;;;1.40;;
64714;SDS011;51144;53.002;6.506;2022-10-23T15:01:15;6.25;;;1.38;;
64714;SDS011;51144;53.002;6.506;2022-10-23T15:03:41;6.38;;;1.20;;
64714;SDS011;51144;53.002;6.506;2022-10-23T15:06:07;5.82;;;1.30;;
64714;SDS011;51144;53.002;6.506;2022-10-23T15:08:34;4.57;;;0.80;;
64714;SDS011;51144;53.002;6.506;2022-10-23T15:11:00;4.90;;;0.63;;
64714;SDS011;51144;53.002;6.506;2022-10-23T15:13:27;4.05;;;0.88;;
64714;SDS011;51144;53.002;6.506;2022-10-23T15:16:03;4.95;;;0.68;;
64714;SDS011;51144;53.002;6.506;2022-10-23T15:18:30;5.93;;;1.13;;
64714;SDS011;51144;53.002;6.506;2022-10-23T15:20:56;5.05;;;1.25;;
64714;SDS011;51144;53.002;6.506;2022-10-23T15:23:22;7.22;;;1.60;;
64714;SDS011;51144;53.002;6.506;2022-10-23T15:25:57;6.30;;;1.02;;
64714;SDS011;51144;53.002;6.506;2022-10-23T15:28:24;6.03;;;0.95;;
64714;SDS011;51144;53.002;6.506;2022-10-23T15:30:50;2.55;;;0.75;;
64714;SDS011;51144;53.002;6.506;2022-10-23T15:33:16;9.50;;;1.15;;
64714;SDS011;51144;53.002;6.506;2022-10-23T15:35:41;8.80;;;0.90;;
64714;SDS011;51144;53.002;6.506;2022-10-23T15:38:07;3.55;;;0.77;;
64714;SDS011;51144;53.002;6.506;2022-10-23T15:40:33;3.92;;;0.50;;
64714;SDS011;51144;53.002;6.506;2022-10-23T15:42:58;3.13;;;0.80;;
64714;SDS011;51144;53.002;6.506;2022-10-23T15:45:24;6.68;;;0.60;;
64714;SDS011;51144;53.002;6.506;2022-10-23T15:47:49;2.13;;;0.60;;
64714;SDS011;51144;53.002;6.506;2022-10-23T15:50:15;6.85;;;0.60;;
64714;SDS011;51144;53.002;6.506;2022-10-23T15:52:41;5.55;;;0.85;;
64714;SDS011;51144;53.002;6.506;2022-10-23T15:55:08;7.20;;;1.25;;
64714;SDS011;51144;53.002;6.506;2022-10-23T15:57:36;5.03;;;0.85;;
64714;SDS011;51144;53.002;6.506;2022-10-23T16:00:03;2.35;;;0.88;;
64714;SDS011;51144;53.002;6.506;2022-10-23T16:02:30;5.93;;;1.83;;
64714;SDS011;51144;53.002;6.506;2022-10-23T16:04:56;4.93;;;1.17;;
64714;SDS011;51144;53.002;6.506;2022-10-23T16:07:21;4.93;;;1.08;;
64714;SDS011;51144;53.002;6.506;2022-10-23T16:09:47;8.60;;;0.80;;
64714;SDS011;51144;53.002;6.506;2022-10-23T16:12:12;3.38;;;0.85;;
64714;SDS011;51144;53.002;6.506;2022-10-23T16:14:38;7.65;;;0.70;;
64714;SDS011;51144;53.002;6.506;2022-10-23T16:17:04;3.53;;;0.98;;
64714;SDS011;51144;53.002;6.506;2022-10-23T16:19:31;4.47;;;0.98;;
64714;SDS011;51144;53.002;6.506;2022-10-23T16:21:57;4.68;;;1.13;;
64714;SDS011;51144;53.002;6.506;2022-10-23T16:24:23;2.67;;;0.73;;
64714;SDS011;51144;53.002;6.506;2022-10-23T16:26:49;3.65;;;1.02;;
64714;SDS011;51144;53.002;6.506;2022-10-23T16:29:17;6.00;;;1.25;;
64714;SDS011;51144;53.002;6.506;2022-10-23T16:31:44;6.43;;;1.23;;
64714;SDS011;51144;53.002;6.506;2022-10-23T16:34:09;5.47;;;0.80;;
64714;SDS011;51144;53.002;6.506;2022-10-23T16:36:35;6.28;;;1.95;;
64714;SDS011;51144;53.002;6.506;2022-10-23T16:39:05;3.70;;;0.93;;
64714;SDS011;51144;53.002;6.506;2022-10-23T16:41:31;9.50;;;0.95;;
64714;SDS011;51144;53.002;6.506;2022-10-23T16:43:56;3.55;;;0.98;;
64714;SDS011;51144;53.002;6.506;2022-10-23T16:46:22;6.63;;;1.60;;
64714;SDS011;51144;53.002;6.506;2022-10-23T16:48:51;7.00;;;1.02;;
64714;SDS011;51144;53.002;6.506;2022-10-23T16:51:18;7.32;;;1.02;;
64714;SDS011;51144;53.002;6.506;2022-10-23T16:53:46;4.40;;;0.70;;
64714;SDS011;51144;53.002;6.506;2022-10-23T16:56:13;7.68;;;1.67;;
64714;SDS011;51144;53.002;6.506;2022-10-23T16:58:41;3.40;;;1.02;;
64714;SDS011;51144;53.002;6.506;2022-10-23T17:01:10;2.60;;;1.00;;
64714;SDS011;51144;53.002;6.506;2022-10-23T17:03:42;6.05;;;1.10;;
64714;SDS011;51144;53.002;6.506;2022-10-23T17:06:14;11.38;;;0.90;;
64714;SDS011;51144;53.002;6.506;2022-10-23T17:08:42;5.43;;;1.30;;
64714;SDS011;51144;53.002;6.506;2022-10-23T17:11:15;3.63;;;1.10;;
64714;SDS011;51144;53.002;6.506;2022-10-23T17:13:42;4.72;;;1.25;;
64714;SDS011;51144;53.002;6.506;2022-10-23T17:16:14;8.48;;;1.08;;
64714;SDS011;51144;53.002;6.506;2022-10-23T17:18:42;5.47;;;1.45;;
64714;SDS011;51144;53.002;6.506;2022-10-23T17:21:09;5.63;;;1.27;;
64714;SDS011;51144;53.002;6.506;2022-10-23T17:23:35;5.70;;;0.77;;
64714;SDS011;51144;53.002;6.506;2022-10-23T17:26:01;3.88;;;1.63;;
64714;SDS011;51144;53.002;6.506;2022-10-23T17:28:28;4.32;;;1.33;;
64714;SDS011;51144;53.002;6.506;2022-10-23T17:30:54;6.07;;;2.00;;
64714;SDS011;51144;53.002;6.506;2022-10-23T17:33:20;5.40;;;1.77;;
64714;SDS011;51144;53.002;6.506;2022-10-23T17:35:46;6.18;;;1.92;;
64714;SDS011;51144;53.002;6.506;2022-10-23T17:38:12;10.23;;;1.80;;
64714;SDS011;51144;53.002;6.506;2022-10-23T17:40:43;7.22;;;1.70;;
64714;SDS011;51144;53.002;6.506;2022-10-23T17:43:10;5.97;;;1.10;;
64714;SDS011;51144;53.002;6.506;2022-10-23T17:45:36;7.15;;;1.00;;
64714;SDS011;51144;53.002;6.506;2022-10-23T17:48:04;3.65;;;0.93;;
64714;SDS011;51144;53.002;6.506;2022-10-23T17:50:30;4.55;;;0.90;;
64714;SDS011;51144;53.002;6.506;2022-10-23T17:52:55;4.05;;;0.93;;
64714;SDS011;51144;53.002;6.506;2022-10-23T17:55:21;4.55;;;1.05;;
64714;SDS011;51144;53.002;6.506;2022-10-23T17:57:47;5.35;;;1.25;;
64714;SDS011;51144;53.002;6.506;2022-10-23T18:00:12;5.72;;;1.25;;
64714;SDS011;51144;53.002;6.506;2022-10-23T18:02:38;12.45;;;1.58;;
64714;SDS011;51144;53.002;6.506;2022-10-23T18:05:04;5.57;;;0.80;;
64714;SDS011;51144;53.002;6.506;2022-10-23T18:07:30;5.78;;;1.33;;
64714;SDS011;51144;53.002;6.506;2022-10-23T18:09:55;2.25;;;1.13;;
64714;SDS011;51144;53.002;6.506;2022-10-23T18:12:21;4.03;;;1.30;;
64714;SDS011;51144;53.002;6.506;2022-10-23T18:14:47;2.95;;;1.05;;
64714;SDS011;51144;53.002;6.506;2022-10-23T18:17:12;5.82;;;1.55;;
64714;SDS011;51144;53.002;6.506;2022-10-23T18:19:38;5.93;;;1.88;;
64714;SDS011;51144;53.002;6.506;2022-10-23T18:22:04;17.08;;;2.80;;
64714;SDS011;51144;53.002;6.506;2022-10-23T18:24:29;7.70;;;1.50;;
64714;SDS011;51144;53.002;6.506;2022-10-23T18:26:55;4.90;;;1.35;;
64714;SDS011;51144;53.002;6.506;2022-10-23T18:29:21;5.15;;;1.35;;
64714;SDS011;51144;53.002;6.506;2022-10-23T18:31:47;3.95;;;1.20;;
64714;SDS011;51144;53.002;6.506;2022-10-23T18:34:15;9.55;;;1.90;;
64714;SDS011;51144;53.002;6.506;2022-10-23T18:36:43;4.88;;;1.23;;
64714;SDS011;51144;53.002;6.506;2022-10-23T18:39:11;4.03;;;0.80;;
64714;SDS011;51144;53.002;6.506;2022-10-23T18:41:39;7.32;;;1.02;;
64714;SDS011;51144;53.002;6.506;2022-10-23T18:44:07;4.43;;;1.00;;
64714;SDS011;51144;53.002;6.506;2022-10-23T18:46:34;6.13;;;1.48;;
64714;SDS011;51144;53.002;6.506;2022-10-23T18:49:00;3.95;;;1.40;;
64714;SDS011;51144;53.002;6.506;2022-10-23T18:51:27;7.78;;;1.40;;
64714;SDS011;51144;53.002;6.506;2022-10-23T18:53:54;6.45;;;1.08;;
64714;SDS011;51144;53.002;6.506;2022-10-23T18:56:21;8.60;;;1.30;;
64714;SDS011;51144;53.002;6.506;2022-10-23T18:58:48;5.57;;;1.77;;
64714;SDS011;51144;53.002;6.506;2022-10-23T19:01:15;8.25;;;1.48;;
64714;SDS011;51144;53.002;6.506;2022-10-23T19:03:41;5.38;;;1.45;;
64714;SDS011;51144;53.002;6.506;2022-10-23T19:06:07;7.70;;;2.75;;
64714;SDS011;51144;53.002;6.506;2022-10-23T19:08:36;4.70;;;1.63;;
64714;SDS011;51144;53.002;6.506;2022-10-23T19:11:04;7.45;;;1.67;;
64714;SDS011;51144;53.002;6.506;2022-10-23T19:13:31;6.35;;;1.33;;
64714;SDS011;51144;53.002;6.506;2022-10-23T19:16:01;8.30;;;1.35;;
64714;SDS011;51144;53.002;6.506;2022-10-23T19:18:52;3.45;;;1.25;;
64714;SDS011;51144;53.002;6.506;2022-10-23T19:21:23;5.15;;;1.75;;
64714;SDS011;51144;53.002;6.506;2022-10-23T19:23:55;3.17;;;1.83;;
64714;SDS011;51144;53.002;6.506;2022-10-23T19:26:24;5.43;;;1.17;;
64714;SDS011;51144;53.002;6.506;2022-10-23T19:28:51;4.68;;;2.13;;
64714;SDS011;51144;53.002;6.506;2022-10-23T19:31:17;4.20;;;1.80;;
64714;SDS011;51144;53.002;6.506;2022-10-23T19:33:43;11.23;;;1.45;;
64714;SDS011;51144;53.002;6.506;2022-10-23T19:36:08;5.00;;;2.22;;
64714;SDS011;51144;53.002;6.506;2022-10-23T19:38:34;4.55;;;1.63;;
64714;SDS011;51144;53.002;6.506;2022-10-23T19:41:00;3.17;;;1.52;;
64714;SDS011;51144;53.002;6.506;2022-10-23T19:43:27;12.30;;;3.40;;
64714;SDS011;51144;53.002;6.506;2022-10-23T19:45:53;7.45;;;1.30;;
64714;SDS011;51144;53.002;6.506;2022-10-23T19:48:19;6.97;;;1.70;;
64714;SDS011;51144;53.002;6.506;2022-10-23T19:50:44;9.02;;;1.83;;
64714;SDS011;51144;53.002;6.506;2022-10-23T19:53:10;3.22;;;1.20;;
64714;SDS011;51144;53.002;6.506;2022-10-23T19:55:35;4.22;;;1.92;;
64714;SDS011;51144;53.002;6.506;2022-10-23T19:58:01;6.63;;;2.17;;
64714;SDS011;51144;53.002;6.506;2022-10-23T20:00:27;4.53;;;1.20;;
64714;SDS011;51144;53.002;6.506;2022-10-23T20:02:53;7.15;;;1.50;;
64714;SDS011;51144;53.002;6.506;2022-10-23T20:05:18;5.22;;;1.50;;
64714;SDS011;51144;53.002;6.506;2022-10-23T20:07:44;6.22;;;1.15;;
64714;SDS011;51144;53.002;6.506;2022-10-23T20:10:12;3.53;;;1.55;;
64714;SDS011;51144;53.002;6.506;2022-10-23T20:12:39;8.88;;;1.42;;
64714;SDS011;51144;53.002;6.506;2022-10-23T20:15:05;6.88;;;1.73;;
64714;SDS011;51144;53.002;6.506;2022-10-23T20:17:31;4.72;;;1.40;;
64714;SDS011;51144;53.002;6.506;2022-10-23T20:19:57;3.97;;;1.50;;
64714;SDS011;51144;53.002;6.506;2022-10-23T20:22:22;12.23;;;1.73;;
64714;SDS011;51144;53.002;6.506;2022-10-23T20:24:48;8.20;;;1.92;;
64714;SDS011;51144;53.002;6.506;2022-10-23T20:27:14;3.85;;;1.90;;
64714;SDS011;51144;53.002;6.506;2022-10-23T20:29:41;5.90;;;1.75;;
64714;SDS011;51144;53.002;6.506;2022-10-23T20:32:07;4.43;;;1.23;;
64714;SDS011;51144;53.002;6.506;2022-10-23T20:34:33;3.90;;;1.50;;
64714;SDS011;51144;53.002;6.506;2022-10-23T20:36:58;4.57;;;1.45;;
64714;SDS011;51144;53.002;6.506;2022-10-23T20:39:24;4.30;;;1.33;;
64714;SDS011;51144;53.002;6.506;2022-10-23T20:41:51;7.25;;;1.95;;
64714;SDS011;51144;53.002;6.506;2022-10-23T20:44:19;4.97;;;1.05;;
64714;SDS011;51144;53.002;6.506;2022-10-23T20:46:45;10.85;;;2.13;;
64714;SDS011;51144;53.002;6.506;2022-10-23T20:49:11;6.03;;;1.17;;
64714;SDS011;51144;53.002;6.506;2022-10-23T20:51:38;5.85;;;0.85;;
64714;SDS011;51144;53.002;6.506;2022-10-23T20:54:04;5.40;;;1.55;;
64714;SDS011;51144;53.002;6.506;2022-10-23T20:56:31;4.78;;;1.52;;
64714;SDS011;51144;53.002;6.506;2022-10-23T20:58:59;3.33;;;0.95;;
64714;SDS011;51144;53.002;6.506;2022-10-23T21:01:29;4.63;;;1.13;;
64714;SDS011;51144;53.002;6.506;2022-10-23T21:03:57;4.82;;;1.10;;
64714;SDS011;51144;53.002;6.506;2022-10-23T21:06:24;4.80;;;0.80;;
64714;SDS011;51144;53.002;6.506;2022-10-23T21:08:55;2.53;;;0.90;;
64714;SDS011;51144;53.002;6.506;2022-10-23T21:11:22;5.63;;;1.50;;
64714;SDS011;51144;53.002;6.506;2022-10-23T21:13:49;5.60;;;1.42;;
64714;SDS011;51144;53.002;6.506;2022-10-23T21:18:43;3.47;;;1.00;;
64714;SDS011;51144;53.002;6.506;2022-10-23T21:21:09;4.05;;;1.08;;
64714;SDS011;51144;53.002;6.506;2022-10-23T21:23:35;2.47;;;1.35;;